Time;durP1;ratioP1;P1;durP2;ratioP2;P2;SDS_P1;SDS_P2;PMS_P1;PMS_P2;Temp;Humidity;BMP_temperature;BMP_pressure;BME280_temperature;BME280_humidity;BME280_pressure;Samples;Min_cycle;Max_cycle;Signal;HPM_P1;HPM_P2
2023/08/07 00:00:57;;;;;;;;;;;;;;;;;;5051500;28;19986;-68
2023/08/07 00:03:23;;;;;;;;;;;;;;;;;;5060980;28;19913;-68
2023/08/07 00:05:48;;;;;;;;;;;;;;;;;;5067990;28;19913;-67
2023/08/07 00:08:15;;;;;;;;;;;;;;;;;;5074909;28;20352;-67
2023/08/07 00:10:41;;;;;;;;;;;;;;;;;;5091873;28;20007;-68
2023/08/07 00:13:06;;;;;;;;;;;;;;;;;;5074536;28;20391;-68
2023/08/07 00:15:35;;;;;;;;;;;;;;;;;;5071891;28;19952;-67
2023/08/07 00:18:01;;;;;;;;;;;;;;;;;;5066792;28;19913;-68
2023/08/07 00:20:27;;;;;;;;;;;;;;;;;;5071621;28;20028;-67
2023/08/07 00:22:53;;;;;;;;;;;;;;;;;;5057974;28;19913;-67
2023/08/07 00:25:19;;;;;;;;;;;;;;;;;;5058538;28;19913;-68
2023/08/07 00:27:45;;;;;;;;;;;;;;;;;;5074245;28;20364;-68
2023/08/07 00:30:11;;;;;;;;;;;;;;;;;;5069647;28;19966;-66
2023/08/07 00:32:37;;;;;;;;;;;;;;;;;;5057326;28;19913;-68
2023/08/07 00:35:04;;;;;;;;;;;;;;;;;;5075328;28;20368;-64
2023/08/07 00:37:30;;;;;;;;;;;;;;;;;;5075924;28;19916;-64
2023/08/07 00:39:56;;;;;;;;;;;;;;;;;;5074767;28;19972;-64
2023/08/07 00:42:21;;;;;;;;;;;;;;;;;;5074902;28;20385;-64
2023/08/07 00:44:47;;;;;;;;;;;;;;;;;;5084688;28;19917;-64
2023/08/07 00:47:13;;;;;;;;;;;;;;;;;;5076142;28;19919;-64
2023/08/07 00:49:39;;;;;;;;;;;;;;;;;;5070561;28;20062;-64
2023/08/07 00:52:05;;;;;;;;;;;;;;;;;;5069596;28;20489;-64
2023/08/07 00:54:31;;;;;;;;;;;;;;;;;;5063039;28;20014;-64
2023/08/07 00:56:57;;;;;;;;;;;;;;;;;;5069896;28;19951;-64
2023/08/07 00:59:23;;;;;;;;;;;;;;;;;;5065965;28;19916;-64
2023/08/07 01:01:49;;;;;;;;;;;;;;;;;;5079671;28;19958;-64
2023/08/07 01:04:15;;;;;;;;;;;;;;;;;;5061544;28;19923;-64
2023/08/07 01:06:40;;;;;;;;;;;;;;;;;;5069801;28;19912;-64
2023/08/07 01:09:06;;;;;;;;;;;;;;;;;;5074040;28;19921;-64
2023/08/07 01:11:34;;;;;;;;;;;;;;;;;;5075617;28;20075;-65
2023/08/07 01:14:00;;;;;;;;;;;;;;;;;;5068069;28;19917;-65
2023/08/07 01:16:26;;;;;;;;;;;;;;;;;;5083439;28;20265;-65
2023/08/07 01:18:52;;;;;;;;;;;;;;;;;;5074145;28;19924;-64
2023/08/07 01:21:18;;;;;;;;;;;;;;;;;;5065845;28;20355;-65
2023/08/07 01:23:44;;;;;;;;;;;;;;;;;;5074013;28;19912;-64
2023/08/07 01:26:10;;;;;;;;;;;;;;;;;;5074218;28;20302;-64
2023/08/07 01:28:36;;;;;;;;;;;;;;;;;;5081137;28;19998;-65
2023/08/07 01:31:02;;;;;;;;;;;;;;;;;;5066527;28;19912;-65
2023/08/07 01:33:29;;;;;;;;;;;;;;;;;;5070012;28;20360;-65
2023/08/07 01:35:55;;;;;;;;;;;;;;;;;;5059048;28;19943;-65
2023/08/07 01:38:21;;;;;;;;;;;;;;;;;;5073522;28;19912;-65
2023/08/07 01:40:47;;;;;;;;;;;;;;;;;;5071126;28;20014;-65
2023/08/07 01:43:13;;;;;;;;;;;;;;;;;;5067250;28;19913;-64
2023/08/07 01:45:39;;;;;;;;;;;;;;;;;;5066806;28;19919;-60
2023/08/07 01:48:05;;;;;;;;;;;;;;;;;;5071219;28;19974;-60
2023/08/07 01:50:31;;;;;;;;;;;;;;;;;;5066240;28;19952;-61
2023/08/07 01:52:57;;;;;;;;;;;;;;;;;;5071925;28;20007;-61
2023/08/07 01:55:23;;;;;;;;;;;;;;;;;;5056955;28;19944;-60
2023/08/07 01:57:49;;;;;;;;;;;;;;;;;;5065407;28;20048;-61
2023/08/07 02:00:15;;;;;;;;;;;;;;;;;;5072717;28;19917;-61
2023/08/07 02:02:40;;;;;;;;;;;;;;;;;;5068740;28;19916;-65
2023/08/07 02:05:06;;;;;;;;;;;;;;;;;;5066775;28;19963;-61
2023/08/07 02:07:32;;;;;;;;;;;;;;;;;;5064038;28;20063;-60
2023/08/07 02:09:58;;;;;;;;;;;;;;;;;;5072645;28;19963;-60
2023/08/07 02:12:25;;;;;;;;;;;;;;;;;;5073469;28;20431;-61
2023/08/07 02:14:51;;;;;;;;;;;;;;;;;;5054996;28;20331;-61
2023/08/07 02:17:17;;;;;;;;;;;;;;;;;;5072468;28;19965;-61
2023/08/07 02:19:43;;;;;;;;;;;;;;;;;;5068639;28;19959;-61
2023/08/07 02:22:08;;;;;;;;;;;;;;;;;;5067923;28;20364;-61
2023/08/07 02:24:34;;;;;;;;;;;;;;;;;;5071660;28;20380;-61
2023/08/07 02:27:00;;;;;;;;;;;;;;;;;;5067783;28;19919;-60
2023/08/07 02:29:26;;;;;;;;;;;;;;;;;;5068434;28;20289;-61
2023/08/07 02:31:52;;;;;;;;;;;;;;;;;;5052580;28;19919;-60
2023/08/07 02:34:18;;;;;;;;;;;;;;;;;;5063430;28;19912;-60
2023/08/07 02:36:44;;;;;;;;;;;;;;;;;;5061667;28;20403;-59
2023/08/07 02:39:10;;;;;;;;;;;;;;;;;;5071996;28;20001;-59
2023/08/07 02:41:36;;;;;;;;;;;;;;;;;;5071714;28;20273;-60
2023/08/07 02:44:02;;;;;;;;;;;;;;;;;;5072891;28;20330;-60
2023/08/07 02:46:27;;;;;;;;;;;;;;;;;;5072156;28;19916;-61
2023/08/07 02:48:53;;;;;;;;;;;;;;;;;;5072834;28;20011;-60
2023/08/07 02:51:19;;;;;;;;;;;;;;;;;;5070024;28;19985;-60
2023/08/07 02:53:45;;;;;;;;;;;;;;;;;;5068093;28;20357;-61
2023/08/07 02:56:11;;;;;;;;;;;;;;;;;;5070106;28;19923;-64
2023/08/07 02:58:37;;;;;;;;;;;;;;;;;;5072440;28;20260;-65
2023/08/07 03:01:03;;;;;;;;;;;;;;;;;;5069933;28;20019;-64
2023/08/07 03:03:29;;;;;;;;;;;;;;;;;;5067548;28;19919;-65
2023/08/07 03:05:55;;;;;;;;;;;;;;;;;;5068642;28;19916;-64
2023/08/07 03:08:20;;;;;;;;;;;;;;;;;;5062271;28;19920;-64
2023/08/07 03:10:46;;;;;;;;;;;;;;;;;;5066760;28;19951;-64
2023/08/07 03:13:12;;;;;;;;;;;;;;;;;;5071126;28;19999;-64
2023/08/07 03:15:38;;;;;;;;;;;;;;;;;;5052624;28;20279;-64
2023/08/07 03:18:04;;;;;;;;;;;;;;;;;;5067041;28;19923;-64
2023/08/07 03:20:30;;;;;;;;;;;;;;;;;;5071332;28;19959;-64
2023/08/07 03:22:56;;;;;;;;;;;;;;;;;;5085706;28;19920;-64
2023/08/07 03:25:22;;;;;;;;;;;;;;;;;;5066802;28;19919;-64
2023/08/07 03:27:48;;;;;;;;;;;;;;;;;;5069126;28;19923;-64
2023/08/07 03:30:14;;;;;;;;;;;;;;;;;;5064826;28;19921;-64
2023/08/07 03:32:41;;;;;;;;;;;;;;;;;;5065740;28;19919;-64
2023/08/07 03:35:07;;;;;;;;;;;;;;;;;;5064164;28;19913;-64
2023/08/07 03:37:33;;;;;;;;;;;;;;;;;;5052095;28;19909;-65
2023/08/07 03:39:59;;;;;;;;;;;;;;;;;;5072485;28;20023;-64
2023/08/07 03:42:25;;;;;;;;;;;;;;;;;;5058663;28;19966;-64
2023/08/07 03:44:51;;;;;;;;;;;;;;;;;;5061823;28;20338;-64
2023/08/07 03:47:17;;;;;;;;;;;;;;;;;;5071512;28;19909;-64
2023/08/07 03:49:42;;;;;;;;;;;;;;;;;;5053385;28;19919;-64
2023/08/07 03:52:08;;;;;;;;;;;;;;;;;;5059168;28;19916;-65
2023/08/07 03:54:34;;;;;;;;;;;;;;;;;;5060776;28;19913;-64
2023/08/07 03:57:00;;;;;;;;;;;;;;;;;;5061138;28;19912;-64
2023/08/07 03:59:26;;;;;;;;;;;;;;;;;;5075223;28;19917;-64
2023/08/07 04:01:52;;;;;;;;;;;;;;;;;;5075462;28;19962;-64
2023/08/07 04:04:18;;;;;;;;;;;;;;;;;;5067814;28;19917;-64
2023/08/07 04:06:44;;;;;;;;;;;;;;;;;;5075093;28;19916;-64
2023/08/07 04:09:10;;;;;;;;;;;;;;;;;;5072524;28;19951;-64
2023/08/07 04:11:36;;;;;;;;;;;;;;;;;;5069177;28;19921;-64
2023/08/07 04:14:02;;;;;;;;;;;;;;;;;;5075038;28;19931;-64
2023/08/07 04:16:27;;;;;;;;;;;;;;;;;;5078876;28;20311;-64
2023/08/07 04:18:53;;;;;;;;;;;;;;;;;;5074260;28;20070;-64
2023/08/07 04:21:19;;;;;;;;;;;;;;;;;;5074177;28;19916;-64
2023/08/07 04:23:45;;;;;;;;;;;;;;;;;;5074070;28;19913;-64
2023/08/07 04:26:11;;;;;;;;;;;;;;;;;;5074197;28;19959;-64
2023/08/07 04:28:37;;;;;;;;;;;;;;;;;;5072885;28;19979;-64
2023/08/07 04:31:03;;;;;;;;;;;;;;;;;;5073898;28;19961;-64
2023/08/07 04:33:29;;;;;;;;;;;;;;;;;;5074438;28;20011;-64
2023/08/07 04:35:55;;;;;;;;;;;;;;;;;;5074869;28;20342;-64
2023/08/07 04:38:21;;;;;;;;;;;;;;;;;;5067498;28;19958;-64
2023/08/07 04:40:47;;;;;;;;;;;;;;;;;;5073480;28;19977;-64
2023/08/07 04:43:13;;;;;;;;;;;;;;;;;;5074219;28;20431;-64
2023/08/07 04:45:39;;;;;;;;;;;;;;;;;;5071963;28;19961;-63
2023/08/07 04:48:05;;;;;;;;;;;;;;;;;;5072988;28;19908;-64
2023/08/07 04:50:31;;;;;;;;;;;;;;;;;;5064210;28;19916;-64
2023/08/07 04:52:57;;;;;;;;;;;;;;;;;;5072054;28;20335;-64
2023/08/07 04:55:23;;;;;;;;;;;;;;;;;;5072503;28;19942;-64
2023/08/07 04:57:50;;;;;;;;;;;;;;;;;;5073470;28;20661;-63
2023/08/07 05:00:17;;;;;;;;;;;;;;;;;;5073276;28;20455;-64
2023/08/07 05:02:43;;;;;;;;;;;;;;;;;;5073143;28;19913;-64
2023/08/07 05:05:09;;;;;;;;;;;;;;;;;;5065389;28;19919;-64
2023/08/07 05:07:35;;;;;;;;;;;;;;;;;;5073837;28;19913;-64
2023/08/07 05:10:01;;;;;;;;;;;;;;;;;;5072721;28;19948;-64
2023/08/07 05:12:27;;;;;;;;;;;;;;;;;;5073963;28;19958;-64
2023/08/07 05:14:53;;;;;;;;;;;;;;;;;;5069485;28;19999;-67
2023/08/07 05:17:19;;;;;;;;;;;;;;;;;;5071827;28;19908;-64
2023/08/07 05:19:45;;;;;;;;;;;;;;;;;;5064303;28;19992;-64
2023/08/07 05:22:10;;;;;;;;;;;;;;;;;;5071419;28;20022;-64
2023/08/07 05:24:38;;;;;;;;;;;;;;;;;;5072879;28;19920;-64
2023/08/07 05:27:04;;;;;;;;;;;;;;;;;;5071994;28;19919;-64
2023/08/07 05:29:30;;;;;;;;;;;;;;;;;;5065955;28;20395;-64
2023/08/07 05:31:56;;;;;;;;;;;;;;;;;;5070951;28;20066;-64
2023/08/07 05:34:22;;;;;;;;;;;;;;;;;;5073397;28;20038;-63
2023/08/07 05:36:48;;;;;;;;;;;;;;;;;;5073211;28;20368;-63
2023/08/07 05:39:14;;;;;;;;;;;;;;;;;;5072487;28;19938;-64
2023/08/07 05:41:40;;;;;;;;;;;;;;;;;;5071165;28;20392;-64
2023/08/07 05:44:06;;;;;;;;;;;;;;;;;;5073154;28;19919;-64
2023/08/07 05:46:32;;;;;;;;;;;;;;;;;;5074678;28;20013;-64
2023/08/07 05:48:58;;;;;;;;;;;;;;;;;;5071140;28;19912;-64
2023/08/07 05:51:24;;;;;;;;;;;;;;;;;;5070884;28;19912;-64
2023/08/07 05:53:50;;;;;;;;;;;;;;;;;;5072309;28;19950;-64
2023/08/07 05:56:17;;;;;;;;;;;;;;;;;;5065505;28;20011;-64
2023/08/07 05:58:43;;;;;;;;;;;;;;;;;;5071871;28;19916;-64
2023/08/07 06:01:09;;;;;;;;;;;;;;;;;;5067803;28;19930;-64
2023/08/07 06:03:35;;;;;;;;;;;;;;;;;;5068856;28;20375;-65
2023/08/07 06:06:01;;;;;;;;;;;;;;;;;;5068272;28;19959;-64
2023/08/07 06:08:27;;;;;;;;;;;;;;;;;;5059292;28;20386;-64
2023/08/07 06:10:53;;;;;;;;;;;;;;;;;;5065752;28;19917;-64
2023/08/07 06:13:19;;;;;;;;;;;;;;;;;;5063582;28;20031;-64
2023/08/07 06:15:45;;;;;;;;;;;;;;;;;;5068117;28;20057;-64
2023/08/07 06:18:11;;;;;;;;;;;;;;;;;;5076537;28;19962;-64
2023/08/07 06:20:37;;;;;;;;;;;;;;;;;;5069105;28;20011;-64
2023/08/07 06:23:03;;;;;;;;;;;;;;;;;;5065307;28;19935;-64
2023/08/07 06:25:28;;;;;;;;;;;;;;;;;;5061940;28;19917;-64
2023/08/07 06:27:54;;;;;;;;;;;;;;;;;;5069529;28;19986;-65
2023/08/07 06:30:20;;;;;;;;;;;;;;;;;;5063985;28;20009;-64
2023/08/07 06:32:46;;;;;;;;;;;;;;;;;;5069907;28;19916;-64
2023/08/07 06:35:12;;;;;;;;;;;;;;;;;;5072189;28;20380;-66
2023/08/07 06:37:38;;;;;;;;;;;;;;;;;;5071787;28;19952;-64
2023/08/07 06:40:05;;;;;;;;;;;;;;;;;;5071337;28;19951;-64
2023/08/07 06:42:30;;;;;;;;;;;;;;;;;;5072221;28;20657;-64
2023/08/07 06:44:56;;;;;;;;;;;;;;;;;;5070304;28;20011;-64
2023/08/07 06:47:22;;;;;;;;;;;;;;;;;;5070471;28;19913;-65
2023/08/07 06:49:48;;;;;;;;;;;;;;;;;;5071280;28;20394;-65
2023/08/07 06:52:14;;;;;;;;;;;;;;;;;;5072300;28;19951;-65
2023/08/07 06:54:40;;;;;;;;;;;;;;;;;;5070141;28;19915;-65
2023/08/07 06:57:06;;;;;;;;;;;;;;;;;;5065542;28;19916;-65
2023/08/07 06:59:32;;;;;;;;;;;;;;;;;;5066411;28;20352;-65
2023/08/07 07:01:58;;;;;;;;;;;;;;;;;;5074582;28;19917;-65
2023/08/07 07:04:24;;;;;;;;;;;;;;;;;;5062262;28;19913;-65
2023/08/07 07:06:49;;;;;;;;;;;;;;;;;;5066588;28;20303;-65
2023/08/07 07:09:16;;;;;;;;;;;;;;;;;;5072106;28;19913;-66
2023/08/07 07:11:42;;;;;;;;;;;;;;;;;;5070919;28;19916;-66
2023/08/07 07:14:08;;;;;;;;;;;;;;;;;;5071220;28;19912;-66
2023/08/07 07:16:33;;;;;;;;;;;;;;;;;;5066217;28;19957;-66
2023/08/07 07:18:59;;;;;;;;;;;;;;;;;;5076580;28;19965;-65
2023/08/07 07:21:25;;;;;;;;;;;;;;;;;;5068539;28;19940;-66
2023/08/07 07:23:51;;;;;;;;;;;;;;;;;;5071139;28;19966;-66
2023/08/07 07:26:17;;;;;;;;;;;;;;;;;;5071996;28;19917;-67
2023/08/07 07:28:43;;;;;;;;;;;;;;;;;;5070659;28;20020;-66
2023/08/07 07:31:11;;;;;;;;;;;;;;;;;;5067300;28;19917;-65
2023/08/07 07:33:39;;;;;;;;;;;;;;;;;;5072915;28;19916;-66
2023/08/07 07:36:05;;;;;;;;;;;;;;;;;;5057505;28;19997;-66
2023/08/07 07:38:31;;;;;;;;;;;;;;;;;;5064266;28;19912;-66
2023/08/07 07:40:57;;;;;;;;;;;;;;;;;;5061914;28;19916;-66
2023/08/07 07:43:23;;;;;;;;;;;;;;;;;;5073288;28;19965;-66
2023/08/07 07:45:49;;;;;;;;;;;;;;;;;;5070955;28;19951;-66
2023/08/07 07:48:15;;;;;;;;;;;;;;;;;;5071263;28;20340;-66
2023/08/07 07:50:41;;;;;;;;;;;;;;;;;;5063830;28;19917;-66
2023/08/07 07:53:07;;;;;;;;;;;;;;;;;;5069697;28;19959;-66
2023/08/07 07:55:34;;;;;;;;;;;;;;;;;;5069512;28;20015;-66
2023/08/07 07:58:00;;;;;;;;;;;;;;;;;;5071936;28;19951;-68
2023/08/07 08:00:26;;;;;;;;;;;;;;;;;;5070727;28;20426;-66
2023/08/07 08:02:53;;;;;;;;;;;;;;;;;;5076401;28;19923;-66
2023/08/07 08:05:19;;;;;;;;;;;;;;;;;;5061472;28;20003;-66
2023/08/07 08:07:45;;;;;;;;;;;;;;;;;;5069064;28;20372;-66
2023/08/07 08:10:12;;;;;;;;;;;;;;;;;;5058399;28;20019;-66
2023/08/07 08:12:38;;;;;;;;;;;;;;;;;;5057779;28;19913;-65
2023/08/07 08:15:04;;;;;;;;;;;;;;;;;;5068147;28;19956;-66
2023/08/07 08:17:30;;;;;;;;;;;;;;;;;;5068096;28;20368;-66
2023/08/07 08:19:56;;;;;;;;;;;;;;;;;;5068138;28;20035;-67
2023/08/07 08:22:22;;;;;;;;;;;;;;;;;;5073180;28;20044;-66
2023/08/07 08:24:48;;;;;;;;;;;;;;;;;;5070868;28;19908;-66
2023/08/07 08:27:14;;;;;;;;;;;;;;;;;;5070560;28;19919;-66
2023/08/07 08:29:40;;;;;;;;;;;;;;;;;;5070701;28;20002;-66
2023/08/07 08:32:06;;;;;;;;;;;;;;;;;;5070346;28;19934;-67
2023/08/07 08:34:32;;;;;;;;;;;;;;;;;;5071320;28;20008;-66
2023/08/07 08:36:57;;;;;;;;;;;;;;;;;;5072676;28;20096;-66
2023/08/07 08:39:23;;;;;;;;;;;;;;;;;;5074178;28;19969;-66
2023/08/07 08:41:49;;;;;;;;;;;;;;;;;;5070113;28;19912;-66
2023/08/07 08:44:15;;;;;;;;;;;;;;;;;;5072385;28;20374;-66
2023/08/07 08:46:41;;;;;;;;;;;;;;;;;;5074205;28;19995;-68
2023/08/07 08:49:07;;;;;;;;;;;;;;;;;;5072593;28;19915;-68
2023/08/07 08:51:33;;;;;;;;;;;;;;;;;;5078472;28;19919;-68
2023/08/07 08:53:59;;;;;;;;;;;;;;;;;;5064358;28;20306;-72
2023/08/07 08:56:25;;;;;;;;;;;;;;;;;;5071065;28;20344;-66
2023/08/07 08:58:51;;;;;;;;;;;;;;;;;;5069786;28;20347;-68
2023/08/07 09:01:17;;;;;;;;;;;;;;;;;;5064625;28;19939;-68
2023/08/07 09:03:43;;;;;;;;;;;;;;;;;;5064827;28;19936;-68
2023/08/07 09:06:09;;;;;;;;;;;;;;;;;;5066372;28;19915;-67
2023/08/07 09:08:35;;;;;;;;;;;;;;;;;;5067499;28;20016;-69
2023/08/07 09:11:01;;;;;;;;;;;;;;;;;;5073321;28;20335;-69
2023/08/07 09:13:27;;;;;;;;;;;;;;;;;;5071288;28;19913;-69
2023/08/07 09:15:53;;;;;;;;;;;;;;;;;;5063178;28;19978;-69
2023/08/07 09:18:20;;;;;;;;;;;;;;;;;;5063550;28;19909;-68
2023/08/07 09:20:45;;;;;;;;;;;;;;;;;;5069682;28;19923;-68
2023/08/07 09:23:11;;;;;;;;;;;;;;;;;;5067426;28;20343;-68
2023/08/07 09:25:37;;;;;;;;;;;;;;;;;;5084239;28;19920;-68
2023/08/07 09:28:04;;;;;;;;;;;;;;;;;;5069794;28;19920;-69
2023/08/07 09:30:30;;;;;;;;;;;;;;;;;;5069947;28;20830;-67
2023/08/07 09:32:55;;;;;;;;;;;;;;;;;;5064730;28;19970;-68
2023/08/07 09:35:22;;;;;;;;;;;;;;;;;;5068188;28;19913;-69
2023/08/07 09:37:48;;;;;;;;;;;;;;;;;;5065053;28;19952;-68
2023/08/07 09:40:15;;;;;;;;;;;;;;;;;;5073019;28;19966;-69
2023/08/07 09:42:41;;;;;;;;;;;;;;;;;;5061055;28;19928;-66
2023/08/07 09:45:07;;;;;;;;;;;;;;;;;;5065294;28;19919;-66
2023/08/07 09:47:33;;;;;;;;;;;;;;;;;;5072045;28;20368;-68
2023/08/07 09:49:59;;;;;;;;;;;;;;;;;;5061008;28;19955;-69
2023/08/07 09:52:26;;;;;;;;;;;;;;;;;;5067363;28;19996;-68
2023/08/07 09:54:52;;;;;;;;;;;;;;;;;;5065368;28;20345;-69
2023/08/07 09:57:17;;;;;;;;;;;;;;;;;;5068896;28;19955;-65
2023/08/07 09:59:43;;;;;;;;;;;;;;;;;;5072701;28;19956;-65
2023/08/07 10:02:11;;;;;;;;;;;;;;;;;;5062121;28;19993;-64
2023/08/07 10:04:37;;;;;;;;;;;;;;;;;;5065283;28;19925;-65
2023/08/07 10:07:03;;;;;;;;;;;;;;;;;;5063694;28;19955;-64
2023/08/07 10:09:28;;;;;;;;;;;;;;;;;;5060096;28;20286;-65
2023/08/07 10:11:54;;;;;;;;;;;;;;;;;;5071433;28;20003;-64
2023/08/07 10:14:20;;;;;;;;;;;;;;;;;;5061285;28;19914;-64
2023/08/07 10:16:46;;;;;;;;;;;;;;;;;;5063308;28;20380;-64
2023/08/07 10:19:12;;;;;;;;;;;;;;;;;;5066486;28;19967;-64
2023/08/07 10:21:38;;;;;;;;;;;;;;;;;;5072428;28;20005;-64
2023/08/07 10:24:04;;;;;;;;;;;;;;;;;;5071801;28;20416;-64
2023/08/07 10:26:30;;;;;;;;;;;;;;;;;;5065880;28;19926;-64
2023/08/07 10:28:56;;;;;;;;;;;;;;;;;;5060543;28;19952;-64
2023/08/07 10:31:21;;;;;;;;;;;;;;;;;;5080410;28;19913;-64
2023/08/07 10:33:47;;;;;;;;;;;;;;;;;;5064039;28;19919;-64
2023/08/07 10:36:13;;;;;;;;;;;;;;;;;;5066208;28;19971;-63
2023/08/07 10:38:39;;;;;;;;;;;;;;;;;;5062453;28;20018;-64
2023/08/07 10:41:05;;;;;;;;;;;;;;;;;;5065488;28;19990;-66
2023/08/07 10:43:31;;;;;;;;;;;;;;;;;;5055630;28;19923;-64
2023/08/07 10:45:57;;;;;;;;;;;;;;;;;;5059068;28;19913;-63
2023/08/07 10:48:23;;;;;;;;;;;;;;;;;;5066454;28;20074;-65
2023/08/07 10:50:49;;;;;;;;;;;;;;;;;;5068775;28;19916;-65
2023/08/07 10:53:15;;;;;;;;;;;;;;;;;;5071259;28;20672;-65
2023/08/07 10:55:41;;;;;;;;;;;;;;;;;;5067973;28;19913;-65
2023/08/07 10:58:07;;;;;;;;;;;;;;;;;;5060094;28;20394;-66
2023/08/07 11:00:33;;;;;;;;;;;;;;;;;;5066043;28;19917;-65
2023/08/07 11:02:59;;;;;;;;;;;;;;;;;;5069679;28;20233;-65
2023/08/07 11:05:25;;;;;;;;;;;;;;;;;;5064666;28;19933;-69
2023/08/07 11:07:51;;;;;;;;;;;;;;;;;;5068982;28;19951;-71
2023/08/07 11:10:17;;;;;;;;;;;;;;;;;;5070943;28;20037;-71
2023/08/07 11:12:43;;;;;;;;;;;;;;;;;;5062781;28;19913;-71
2023/08/07 11:15:09;;;;;;;;;;;;;;;;;;5067074;28;20037;-69
2023/08/07 11:17:34;;;;;;;;;;;;;;;;;;5055248;28;20276;-72
2023/08/07 11:20:00;;;;;;;;;;;;;;;;;;5063234;28;20007;-71
2023/08/07 11:22:26;;;;;;;;;;;;;;;;;;5067425;28;19923;-71
2023/08/07 11:24:52;;;;;;;;;;;;;;;;;;5069047;28;19963;-71
2023/08/07 11:27:18;;;;;;;;;;;;;;;;;;5066197;28;19992;-72
2023/08/07 11:29:44;;;;;;;;;;;;;;;;;;5065287;28;19919;-70
2023/08/07 11:32:10;;;;;;;;;;;;;;;;;;5067687;28;20299;-71
2023/08/07 11:34:36;;;;;;;;;;;;;;;;;;5060656;28;19920;-70
2023/08/07 11:37:02;;;;;;;;;;;;;;;;;;5066312;28;19982;-71
2023/08/07 11:39:28;;;;;;;;;;;;;;;;;;5070953;28;20390;-71
2023/08/07 11:41:54;;;;;;;;;;;;;;;;;;5065446;28;19916;-70
2023/08/07 11:44:20;;;;;;;;;;;;;;;;;;5069568;28;19916;-72
2023/08/07 11:46:46;;;;;;;;;;;;;;;;;;5064829;28;20033;-69
2023/08/07 11:49:12;;;;;;;;;;;;;;;;;;5063665;28;20369;-69
2023/08/07 11:51:38;;;;;;;;;;;;;;;;;;5069995;28;20391;-69
2023/08/07 11:54:04;;;;;;;;;;;;;;;;;;5070732;28;19957;-69
2023/08/07 11:56:30;;;;;;;;;;;;;;;;;;5064730;28;20026;-70
2023/08/07 11:58:56;;;;;;;;;;;;;;;;;;5075432;28;20365;-70
2023/08/07 12:01:22;;;;;;;;;;;;;;;;;;5070578;28;20368;-70
2023/08/07 12:03:47;;;;;;;;;;;;;;;;;;5065808;28;19920;-69
2023/08/07 12:06:13;;;;;;;;;;;;;;;;;;5076777;28;20361;-69
2023/08/07 12:08:39;;;;;;;;;;;;;;;;;;5070999;28;19944;-73
2023/08/07 12:11:05;;;;;;;;;;;;;;;;;;5069312;28;20251;-72
2023/08/07 12:13:32;;;;;;;;;;;;;;;;;;5069332;28;19952;-72
2023/08/07 12:15:58;;;;;;;;;;;;;;;;;;5067056;28;19910;-69
2023/08/07 12:18:24;;;;;;;;;;;;;;;;;;5067724;28;19967;-68
2023/08/07 12:20:51;;;;;;;;;;;;;;;;;;5082378;28;20337;-69
2023/08/07 12:23:17;;;;;;;;;;;;;;;;;;5074711;28;20338;-70
2023/08/07 12:25:43;;;;;;;;;;;;;;;;;;5074441;28;19924;-70
2023/08/07 12:28:09;;;;;;;;;;;;;;;;;;5073298;28;20415;-69
2023/08/07 12:30:34;;;;;;;;;;;;;;;;;;5073851;28;19923;-69
2023/08/07 12:33:02;;;;;;;;;;;;;;;;;;5072950;28;19936;-69
2023/08/07 12:35:28;;;;;;;;;;;;;;;;;;5073972;28;19913;-68
2023/08/07 12:37:54;;;;;;;;;;;;;;;;;;5075920;28;20265;-68
2023/08/07 12:40:21;;;;;;;;;;;;;;;;;;5073804;28;19971;-69
2023/08/07 12:42:48;;;;;;;;;;;;;;;;;;5065883;28;19966;-70
2023/08/07 12:45:15;;;;;;;;;;;;;;;;;;5061999;28;19983;-69
2023/08/07 12:47:41;;;;;;;;;;;;;;;;;;5066123;28;20365;-68
2023/08/07 12:50:08;;;;;;;;;;;;;;;;;;5070925;28;19932;-68
2023/08/07 12:52:34;;;;;;;;;;;;;;;;;;5073406;28;19993;-68
2023/08/07 12:55:00;;;;;;;;;;;;;;;;;;5073993;28;19954;-68
2023/08/07 12:57:25;;;;;;;;;;;;;;;;;;5069985;28;19955;-68
2023/08/07 12:59:51;;;;;;;;;;;;;;;;;;5073643;28;20371;-68
2023/08/07 13:02:17;;;;;;;;;;;;;;;;;;5071511;28;19931;-67
2023/08/07 13:04:43;;;;;;;;;;;;;;;;;;5073663;28;19916;-67
2023/08/07 13:07:09;;;;;;;;;;;;;;;;;;5073968;28;19908;-66
2023/08/07 13:09:35;;;;;;;;;;;;;;;;;;5073414;28;19957;-66
2023/08/07 13:12:01;;;;;;;;;;;;;;;;;;5072502;28;19917;-65
2023/08/07 13:14:27;;;;;;;;;;;;;;;;;;5072657;28;19922;-66
2023/08/07 13:16:53;;;;;;;;;;;;;;;;;;5070293;28;20384;-66
2023/08/07 13:19:19;;;;;;;;;;;;;;;;;;5069216;28;19978;-66
2023/08/07 13:21:44;;;;;;;;;;;;;;;;;;5073370;28;20003;-66
2023/08/07 13:24:11;;;;;;;;;;;;;;;;;;5074498;28;20376;-66
2023/08/07 13:26:38;;;;;;;;;;;;;;;;;;5073309;28;19913;-62
2023/08/07 13:29:04;;;;;;;;;;;;;;;;;;5071612;28;19913;-61
2023/08/07 13:31:30;;;;;;;;;;;;;;;;;;5072624;28;19963;-60
2023/08/07 13:33:56;;;;;;;;;;;;;;;;;;5073158;28;20356;-61
2023/08/07 13:36:22;;;;;;;;;;;;;;;;;;5073257;28;19912;-60
2023/08/07 13:38:48;;;;;;;;;;;;;;;;;;5073026;28;19959;-61
2023/08/07 13:41:14;;;;;;;;;;;;;;;;;;5073176;28;19956;-62
2023/08/07 13:43:39;;;;;;;;;;;;;;;;;;5072747;28;19912;-63
2023/08/07 13:46:05;;;;;;;;;;;;;;;;;;5071158;28;20689;-67
2023/08/07 13:48:33;;;;;;;;;;;;;;;;;;5062305;28;19920;-62
2023/08/07 13:51:00;;;;;;;;;;;;;;;;;;5068741;28;19916;-62
2023/08/07 13:53:29;;;;;;;;;;;;;;;;;;5072876;28;20387;-61
2023/08/07 13:55:54;;;;;;;;;;;;;;;;;;5069151;28;19913;-61
2023/08/07 13:58:20;;;;;;;;;;;;;;;;;;5065736;28;19927;-62
2023/08/07 14:00:48;;;;;;;;;;;;;;;;;;5067845;28;19959;-62
2023/08/07 14:03:14;;;;;;;;;;;;;;;;;;5066120;28;20334;-62
2023/08/07 14:05:40;;;;;;;;;;;;;;;;;;5067706;28;19912;-62
2023/08/07 14:08:06;;;;;;;;;;;;;;;;;;5070521;28;19913;-62
2023/08/07 14:10:32;;;;;;;;;;;;;;;;;;5072422;28;19995;-62
2023/08/07 14:12:57;;;;;;;;;;;;;;;;;;5064498;28;19970;-62
2023/08/07 14:15:24;;;;;;;;;;;;;;;;;;5072562;28;20276;-62
2023/08/07 14:17:52;;;;;;;;;;;;;;;;;;5067325;28;19920;-62
2023/08/07 14:20:18;;;;;;;;;;;;;;;;;;5067015;28;19925;-62
2023/08/07 14:22:44;;;;;;;;;;;;;;;;;;5068505;28;19936;-63
2023/08/07 14:25:10;;;;;;;;;;;;;;;;;;5072232;28;19916;-62
2023/08/07 14:27:35;;;;;;;;;;;;;;;;;;5071688;28;19948;-63
2023/08/07 14:30:01;;;;;;;;;;;;;;;;;;5064898;28;20368;-62
2023/08/07 14:32:27;;;;;;;;;;;;;;;;;;5072287;28;19971;-61
2023/08/07 14:34:53;;;;;;;;;;;;;;;;;;5078963;28;19984;-69
2023/08/07 14:37:19;;;;;;;;;;;;;;;;;;5072543;28;19916;-69
2023/08/07 14:39:45;;;;;;;;;;;;;;;;;;5071975;28;19954;-69
2023/08/07 14:42:11;;;;;;;;;;;;;;;;;;5069347;28;20368;-69
2023/08/07 14:44:37;;;;;;;;;;;;;;;;;;5071776;28;19924;-69
2023/08/07 14:47:03;;;;;;;;;;;;;;;;;;5071773;28;19908;-69
2023/08/07 14:49:29;;;;;;;;;;;;;;;;;;5071873;28;19912;-68
2023/08/07 14:51:54;;;;;;;;;;;;;;;;;;5070323;28;20333;-69
2023/08/07 14:54:20;;;;;;;;;;;;;;;;;;5071715;28;20010;-69
2023/08/07 14:56:46;;;;;;;;;;;;;;;;;;5071488;28;20002;-69
2023/08/07 14:59:12;;;;;;;;;;;;;;;;;;5071466;28;20370;-69
2023/08/07 15:01:38;;;;;;;;;;;;;;;;;;5067092;28;19962;-69
2023/08/07 15:04:04;;;;;;;;;;;;;;;;;;5071571;28;19966;-69
2023/08/07 15:06:30;;;;;;;;;;;;;;;;;;5071541;28;19916;-69
2023/08/07 15:08:56;;;;;;;;;;;;;;;;;;5070684;28;20074;-73
2023/08/07 15:11:22;;;;;;;;;;;;;;;;;;5070627;28;20361;-69
2023/08/07 15:13:48;;;;;;;;;;;;;;;;;;5062147;28;19934;-69
2023/08/07 15:16:14;;;;;;;;;;;;;;;;;;5063734;28;19951;-69
2023/08/07 15:18:40;;;;;;;;;;;;;;;;;;5071428;28;20315;-70
2023/08/07 15:21:06;;;;;;;;;;;;;;;;;;5062960;28;19959;-70
2023/08/07 15:23:32;;;;;;;;;;;;;;;;;;5071389;28;19916;-68
2023/08/07 15:25:58;;;;;;;;;;;;;;;;;;5068058;28;20352;-72
2023/08/07 15:28:24;;;;;;;;;;;;;;;;;;5068367;28;19912;-70
2023/08/07 15:30:49;;;;;;;;;;;;;;;;;;5067644;28;20042;-71
2023/08/07 15:33:16;;;;;;;;;;;;;;;;;;5071530;28;19994;-69
2023/08/07 15:35:42;;;;;;;;;;;;;;;;;;5069582;28;19958;-68
2023/08/07 15:38:10;;;;;;;;;;;;;;;;;;5070288;28;19951;-69
2023/08/07 15:40:36;;;;;;;;;;;;;;;;;;5070491;28;19946;-69
2023/08/07 15:43:02;;;;;;;;;;;;;;;;;;5062603;28;20316;-68
2023/08/07 15:45:27;;;;;;;;;;;;;;;;;;5065926;28;19923;-63
2023/08/07 15:47:53;;;;;;;;;;;;;;;;;;5071169;28;20013;-62
2023/08/07 15:50:19;;;;;;;;;;;;;;;;;;5069726;28;19919;-63
2023/08/07 15:52:45;;;;;;;;;;;;;;;;;;5073658;28;19936;-62
2023/08/07 15:55:11;;;;;;;;;;;;;;;;;;5065396;28;19955;-62
2023/08/07 15:57:37;;;;;;;;;;;;;;;;;;5067978;28;20010;-62
2023/08/07 16:00:04;;;;;;;;;;;;;;;;;;5074662;28;20320;-63
2023/08/07 16:02:30;;;;;;;;;;;;;;;;;;5066809;28;19948;-63
2023/08/07 16:04:56;;;;;;;;;;;;;;;;;;5075116;28;19952;-62
2023/08/07 16:07:22;;;;;;;;;;;;;;;;;;5074899;28;20007;-62
2023/08/07 16:09:48;;;;;;;;;;;;;;;;;;5083015;28;19916;-62
2023/08/07 16:12:17;;;;;;;;;;;;;;;;;;5073832;28;19936;-62
2023/08/07 16:14:43;;;;;;;;;;;;;;;;;;5072813;28;19909;-62
2023/08/07 16:17:08;;;;;;;;;;;;;;;;;;5068892;28;19946;-62
2023/08/07 16:19:34;;;;;;;;;;;;;;;;;;5075725;28;19924;-62
2023/08/07 16:22:00;;;;;;;;;;;;;;;;;;5073898;28;20019;-63
2023/08/07 16:24:26;;;;;;;;;;;;;;;;;;5073341;28;19916;-62
2023/08/07 16:26:52;;;;;;;;;;;;;;;;;;5074651;28;19913;-62
2023/08/07 16:29:18;;;;;;;;;;;;;;;;;;5074881;28;19912;-62
2023/08/07 16:31:44;;;;;;;;;;;;;;;;;;5074182;28;19963;-62
2023/08/07 16:34:10;;;;;;;;;;;;;;;;;;5069479;28;20472;-63
2023/08/07 16:36:36;;;;;;;;;;;;;;;;;;5060807;28;19969;-63